createdAt,value
2022-10-08T00:01:16.045Z,6.60
2022-10-08T00:03:45.383Z,8.05
2022-10-08T00:06:30.031Z,6.28
2022-10-08T00:09:07.500Z,7.50
2022-10-08T00:11:37.594Z,6.72
2022-10-08T00:14:04.734Z,7.25
2022-10-08T00:16:42.968Z,6.75
2022-10-08T00:19:17.108Z,7.32
2022-10-08T00:21:45.208Z,6.88
2022-10-08T00:24:18.737Z,7.13
2022-10-08T00:26:47.749Z,6.80
2022-10-08T00:29:19.116Z,6.75
2022-10-08T00:31:48.557Z,6.75
2022-10-08T00:34:23.198Z,6.10
2022-10-08T00:36:54.762Z,5.93
2022-10-08T00:39:23.299Z,6.13
2022-10-08T00:41:53.498Z,7.72
2022-10-08T00:44:54.908Z,6.68
2022-10-08T00:47:33.355Z,7.45
2022-10-08T00:50:09.270Z,6.90
2022-10-08T00:52:42.368Z,7.00
2022-10-08T00:55:12.069Z,5.80
2022-10-08T00:57:38.970Z,5.70
2022-10-08T01:00:16.133Z,6.00
2022-10-08T01:02:43.044Z,5.63
2022-10-08T01:05:11.101Z,6.10
2022-10-08T01:07:45.779Z,6.03
2022-10-08T01:10:25.774Z,7.43
2022-10-08T01:13:04.331Z,6.63
2022-10-08T01:15:44.566Z,5.85
2022-10-08T01:18:29.049Z,4.80
2022-10-08T01:21:13.244Z,6.75
2022-10-08T01:24:11.612Z,6.40
2022-10-08T01:26:55.542Z,6.15
2022-10-08T01:29:29.383Z,5.40
2022-10-08T01:32:03.238Z,5.55
2022-10-08T01:34:37.019Z,7.07
2022-10-08T01:37:06.555Z,5.80
2022-10-08T01:39:37.893Z,6.00
2022-10-08T01:42:09.492Z,6.80
2022-10-08T01:44:43.838Z,6.45
2022-10-08T01:47:16.201Z,5.68
2022-10-08T01:49:53.474Z,4.00
2022-10-08T01:52:43.555Z,7.38
2022-10-08T01:55:17.714Z,6.43
2022-10-08T01:57:45.410Z,6.35
2022-10-08T02:00:17.084Z,5.22
2022-10-08T02:02:46.177Z,5.55
2022-10-08T02:05:12.920Z,4.43
2022-10-08T02:07:42.415Z,5.95
2022-10-08T02:10:16.630Z,6.50
2022-10-08T02:12:44.449Z,5.95
2022-10-08T02:15:22.290Z,5.13
2022-10-08T02:18:06.952Z,4.22
2022-10-08T02:20:50.459Z,6.18
2022-10-08T02:23:22.545Z,5.20
2022-10-08T02:28:45.257Z,5.03
2022-10-08T02:31:19.487Z,5.55
2022-10-08T02:33:55.789Z,5.00
2022-10-08T02:36:31.205Z,3.70
2022-10-08T02:39:01.429Z,5.00
2022-10-08T02:41:34.607Z,4.13
2022-10-08T02:44:08.140Z,5.72
2022-10-08T02:46:41.400Z,5.15
2022-10-08T02:49:24.090Z,6.15
2022-10-08T02:51:54.341Z,4.75
2022-10-08T02:54:25.525Z,6.03
2022-10-08T02:57:05.811Z,4.50
2022-10-08T02:59:35.415Z,4.28
2022-10-08T03:02:03.421Z,5.93
2022-10-08T03:04:38.876Z,4.93
2022-10-08T03:07:08.419Z,5.43
2022-10-08T03:09:39.673Z,4.75
2022-10-08T03:12:09.203Z,6.00
2022-10-08T03:14:40.465Z,5.35
2022-10-08T03:17:08.671Z,6.23
2022-10-08T03:19:38.470Z,5.28
2022-10-08T03:22:09.938Z,3.60
2022-10-08T03:24:38.461Z,3.70
2022-10-08T03:27:04.923Z,6.05
2022-10-08T03:29:34.452Z,3.58
2022-10-08T03:32:00.769Z,5.13
2022-10-08T03:34:29.572Z,4.32
2022-10-08T03:36:55.968Z,5.10
2022-10-08T03:39:24.797Z,3.83
2022-10-08T03:41:51.219Z,4.10
2022-10-08T03:44:17.595Z,5.32
2022-10-08T03:46:43.965Z,5.13
2022-10-08T03:49:10.435Z,5.07
2022-10-08T03:51:36.855Z,4.97
2022-10-08T03:54:05.824Z,4.65
2022-10-08T03:56:32.301Z,5.10
2022-10-08T03:59:00.090Z,6.05
2022-10-08T04:01:28.538Z,3.33
2022-10-08T04:03:57.509Z,5.53
2022-10-08T04:06:23.861Z,4.80
2022-10-08T04:08:50.543Z,6.90
2022-10-08T04:11:18.432Z,4.65
2022-10-08T04:13:44.830Z,4.32
2022-10-08T04:16:14.634Z,6.63
2022-10-08T04:18:43.912Z,5.75
2022-10-08T04:21:12.813Z,4.95
2022-10-08T04:23:43.094Z,5.93
2022-10-08T04:26:11.239Z,5.00
2022-10-08T04:28:39.382Z,5.68
2022-10-08T04:31:16.579Z,5.25
2022-10-08T04:33:43.997Z,5.63
2022-10-08T04:36:14.025Z,5.47
2022-10-08T04:38:42.659Z,5.40
2022-10-08T04:41:16.435Z,5.40
2022-10-08T04:43:46.252Z,5.28
2022-10-08T04:46:17.020Z,6.25
2022-10-08T04:48:51.426Z,5.68
2022-10-08T04:51:19.127Z,5.00
2022-10-08T04:53:45.700Z,5.70
2022-10-08T04:56:18.809Z,6.05
2022-10-08T04:58:45.816Z,5.65
2022-10-08T05:01:16.804Z,5.70
2022-10-08T05:03:45.869Z,5.90
2022-10-08T05:06:12.779Z,6.03
2022-10-08T05:08:39.389Z,5.45
2022-10-08T05:11:05.873Z,5.80
2022-10-08T05:13:32.970Z,5.47
2022-10-08T05:16:07.605Z,3.90
2022-10-08T05:18:35.363Z,5.47
2022-10-08T05:21:08.511Z,6.00
2022-10-08T05:23:36.050Z,4.20
2022-10-08T05:26:11.929Z,4.55
2022-10-08T05:28:40.485Z,4.10
2022-10-08T05:31:09.451Z,4.72
2022-10-08T05:33:36.624Z,4.82
2022-10-08T05:36:10.719Z,4.90
2022-10-08T05:38:37.303Z,3.95
2022-10-08T05:41:15.039Z,5.82
2022-10-08T05:43:44.184Z,3.70
2022-10-08T05:46:11.439Z,4.38
2022-10-08T05:48:38.535Z,3.65
2022-10-08T05:51:05.954Z,3.80
2022-10-08T05:53:37.352Z,3.70
2022-10-08T05:56:06.555Z,4.10
2022-10-08T05:58:35.074Z,3.40
2022-10-08T06:01:06.352Z,4.40
2022-10-08T06:03:35.661Z,3.67
2022-10-08T06:06:04.218Z,3.60
2022-10-08T06:08:30.839Z,3.20
2022-10-08T06:10:57.474Z,3.63
2022-10-08T06:13:24.689Z,3.95
2022-10-08T06:16:05.635Z,3.67
2022-10-08T06:18:35.188Z,4.30
2022-10-08T06:21:09.896Z,3.70
2022-10-08T06:23:41.413Z,3.67
2022-10-08T06:26:09.702Z,4.00
2022-10-08T06:28:38.030Z,4.18
2022-10-08T06:31:06.549Z,3.70
2022-10-08T06:33:33.977Z,4.50
2022-10-08T06:36:16.965Z,4.05
2022-10-08T06:38:43.720Z,3.47
2022-10-08T06:41:10.081Z,3.80
2022-10-08T06:43:36.520Z,3.60
2022-10-08T06:46:06.433Z,4.82
2022-10-08T06:48:33.377Z,3.72
2022-10-08T06:51:08.356Z,3.17
2022-10-08T06:53:35.117Z,4.10
2022-10-08T06:56:10.805Z,4.38
2022-10-08T06:58:38.292Z,4.65
2022-10-08T07:01:18.899Z,4.75
2022-10-08T07:03:49.957Z,6.60
2022-10-08T07:06:17.209Z,5.18
2022-10-08T07:08:43.725Z,4.55
2022-10-08T07:11:21.380Z,3.92
2022-10-08T07:13:48.120Z,4.70
2022-10-08T07:16:20.834Z,5.38
2022-10-08T07:18:50.095Z,5.72
2022-10-08T07:21:18.772Z,5.13
2022-10-08T07:23:45.495Z,4.68
2022-10-08T07:26:17.524Z,4.32
2022-10-08T07:28:53.426Z,4.68
2022-10-08T07:31:22.757Z,4.53
2022-10-08T07:33:49.608Z,5.15
2022-10-08T07:36:18.850Z,5.22
2022-10-08T07:38:45.882Z,4.20
2022-10-08T07:41:12.916Z,4.55
2022-10-08T07:43:43.159Z,4.30
2022-10-08T07:46:11.404Z,4.70
2022-10-08T07:48:38.464Z,4.70
2022-10-08T07:51:10.993Z,4.07
2022-10-08T07:53:37.956Z,3.30
2022-10-08T07:56:08.621Z,3.65
2022-10-08T07:58:38.153Z,4.53
2022-10-08T08:01:06.654Z,3.22
2022-10-08T08:03:33.325Z,3.90
2022-10-08T08:06:17.655Z,4.38
2022-10-08T08:08:45.819Z,3.58
2022-10-08T08:11:14.758Z,2.60
2022-10-08T08:13:45.048Z,3.35
2022-10-08T08:16:17.763Z,2.28
2022-10-08T08:18:49.518Z,2.88
2022-10-08T08:21:27.858Z,3.08
2022-10-08T08:23:56.905Z,3.10
2022-10-08T08:26:26.459Z,2.85
2022-10-08T08:28:54.588Z,2.95
2022-10-08T08:31:26.900Z,3.20
2022-10-08T08:33:56.303Z,2.83
2022-10-08T08:36:31.099Z,2.97
2022-10-08T08:38:58.229Z,2.97
2022-10-08T08:41:33.731Z,3.10
2022-10-08T08:44:02.447Z,2.50
2022-10-08T08:46:33.801Z,2.65
2022-10-08T08:49:05.297Z,2.53
2022-10-08T08:51:31.960Z,2.45
2022-10-08T08:53:59.865Z,3.33
2022-10-08T08:56:26.356Z,2.53
2022-10-08T08:59:14.253Z,2.90
2022-10-08T09:01:44.035Z,2.88
2022-10-08T09:04:20.497Z,2.65
2022-10-08T09:06:50.564Z,2.35
2022-10-08T09:09:36.396Z,1.83
2022-10-08T09:12:41.500Z,1.40
2022-10-08T09:15:18.797Z,2.28
2022-10-08T09:17:49.517Z,1.70
2022-10-08T09:20:17.996Z,1.92
2022-10-08T09:22:45.595Z,3.10
2022-10-08T09:25:21.227Z,1.67
2022-10-08T09:27:55.176Z,2.55
2022-10-08T09:30:24.729Z,1.98
2022-10-08T09:32:53.610Z,1.10
2022-10-08T09:35:20.219Z,1.55
2022-10-08T09:37:48.385Z,1.80
2022-10-08T09:40:21.794Z,1.27
2022-10-08T09:43:11.865Z,1.48
2022-10-08T09:45:41.415Z,1.58
2022-10-08T09:48:25.695Z,1.45
2022-10-08T09:50:54.908Z,2.10
2022-10-08T09:53:24.242Z,1.63
2022-10-08T09:55:58.216Z,1.15
2022-10-08T09:58:30.289Z,1.23
2022-10-08T10:00:59.943Z,1.50
2022-10-08T10:03:29.033Z,1.33
2022-10-08T10:05:56.728Z,1.00
2022-10-08T10:08:48.424Z,1.10
2022-10-08T10:11:21.787Z,1.02
2022-10-08T10:13:49.964Z,1.15
2022-10-08T10:16:40.251Z,1.08
2022-10-08T10:19:15.061Z,0.98
2022-10-08T10:22:05.719Z,1.70
2022-10-08T10:24:38.091Z,1.23
2022-10-08T10:27:16.293Z,1.02
2022-10-08T10:29:53.550Z,0.98
2022-10-08T10:32:29.574Z,1.13
2022-10-08T10:35:05.229Z,0.95
2022-10-08T10:37:37.856Z,0.80
2022-10-08T10:40:31.408Z,1.38
2022-10-08T10:43:17.776Z,1.75
2022-10-08T10:45:52.639Z,1.13
2022-10-08T10:48:19.400Z,1.60
2022-10-08T10:51:00.950Z,1.55
2022-10-08T10:53:51.792Z,1.20
2022-10-08T10:56:20.889Z,0.68
2022-10-08T10:58:53.187Z,1.00
2022-10-08T11:01:48.105Z,1.02
2022-10-08T11:04:36.860Z,0.60
2022-10-08T11:07:19.494Z,0.60
2022-10-08T11:10:06.473Z,0.55
2022-10-08T11:12:51.101Z,0.68
2022-10-08T11:15:41.294Z,0.60
2022-10-08T11:18:33.972Z,0.80
2022-10-08T11:21:37.962Z,0.55
2022-10-08T11:24:14.280Z,0.40
2022-10-08T11:26:47.253Z,0.43
2022-10-08T11:29:26.275Z,0.50
2022-10-08T11:31:55.697Z,0.85
2022-10-08T11:34:37.412Z,0.60
2022-10-08T11:37:06.559Z,0.70
2022-10-08T11:39:56.390Z,1.08
2022-10-08T11:42:29.445Z,0.40
2022-10-08T11:45:13.553Z,0.52
2022-10-08T11:47:42.645Z,0.60
2022-10-08T11:50:28.759Z,0.65
2022-10-08T11:53:18.215Z,1.20
2022-10-08T11:55:57.005Z,0.60
2022-10-08T11:58:28.215Z,0.70
2022-10-08T12:01:04.460Z,1.35
2022-10-08T12:03:37.374Z,0.60
2022-10-08T12:06:26.713Z,0.60
2022-10-08T12:09:15.071Z,0.38
2022-10-08T12:11:41.444Z,0.55
2022-10-08T12:14:10.772Z,0.63
2022-10-08T12:17:08.194Z,0.80
2022-10-08T12:19:37.174Z,0.82
2022-10-08T12:22:16.438Z,0.65
2022-10-08T12:24:50.279Z,0.90
2022-10-08T12:27:17.266Z,0.63
2022-10-08T12:30:14.331Z,0.60
2022-10-08T12:32:43.688Z,0.57
2022-10-08T12:35:36.894Z,1.05
2022-10-08T12:38:36.155Z,0.90
2022-10-08T12:41:10.715Z,0.90
2022-10-08T12:43:50.324Z,1.10
2022-10-08T12:46:40.006Z,0.95
2022-10-08T12:49:23.389Z,0.85
2022-10-08T12:52:10.535Z,0.93
2022-10-08T12:54:40.828Z,0.95
2022-10-08T12:57:13.590Z,1.08
2022-10-08T12:59:41.736Z,0.90
2022-10-08T13:02:42.009Z,1.02
2022-10-08T13:05:29.317Z,1.00
2022-10-08T13:07:56.143Z,0.80
2022-10-08T13:10:25.310Z,1.25
2022-10-08T13:13:07.055Z,1.15
2022-10-08T13:15:34.762Z,1.17
2022-10-08T13:18:14.790Z,1.17
2022-10-08T13:20:59.229Z,1.67
2022-10-08T13:23:26.513Z,1.08
2022-10-08T13:25:52.908Z,1.30
2022-10-08T13:28:41.642Z,1.00
2022-10-08T13:31:23.960Z,1.30
2022-10-08T13:33:51.034Z,1.05
2022-10-08T13:36:23.270Z,0.80
2022-10-08T13:38:50.047Z,1.10
2022-10-08T13:41:25.348Z,1.10
2022-10-08T13:43:54.345Z,0.95
2022-10-08T13:46:20.960Z,1.67
2022-10-08T13:48:47.417Z,1.25
2022-10-08T13:51:16.489Z,1.58
2022-10-08T13:53:45.474Z,1.38
2022-10-08T13:56:14.920Z,1.23
2022-10-08T13:58:41.591Z,3.65
2022-10-08T14:01:08.007Z,1.17
2022-10-08T14:03:34.373Z,1.55
2022-10-08T14:06:00.816Z,1.38
2022-10-08T14:08:29.499Z,1.20
2022-10-08T14:10:59.725Z,1.52
2022-10-08T14:13:26.401Z,1.73
2022-10-08T14:15:52.938Z,1.40
2022-10-08T14:18:19.370Z,1.25
2022-10-08T14:20:48.097Z,1.13
2022-10-08T14:23:14.517Z,1.20
2022-10-08T14:25:40.951Z,1.50
2022-10-08T14:28:07.419Z,1.75
2022-10-08T14:30:36.176Z,1.48
2022-10-08T14:33:02.519Z,1.60
2022-10-08T14:35:28.932Z,1.05
2022-10-08T14:37:55.285Z,1.50
2022-10-08T14:40:22.759Z,1.35
2022-10-08T14:42:50.889Z,1.15
2022-10-08T14:45:17.799Z,0.90
2022-10-08T14:47:44.326Z,1.60
2022-10-08T14:50:10.756Z,1.55
2022-10-08T14:52:41.716Z,1.25
2022-10-08T14:55:10.541Z,3.25
2022-10-08T14:57:36.903Z,8.15
2022-10-08T15:00:04.918Z,4.70
2022-10-08T15:02:37.020Z,9.23
2022-10-08T15:05:03.792Z,29.30
2022-10-08T15:07:30.763Z,15.85
2022-10-08T15:09:57.399Z,16.38
2022-10-08T15:12:23.777Z,10.32
2022-10-08T15:14:50.139Z,5.35
2022-10-08T15:17:16.536Z,2.75
2022-10-08T15:19:43.114Z,1.48
2022-10-08T15:22:09.436Z,1.85
2022-10-08T15:24:35.854Z,1.70
2022-10-08T15:27:04.762Z,1.75
2022-10-08T15:29:33.282Z,1.55
2022-10-08T15:31:59.748Z,2.03
2022-10-08T15:34:26.168Z,1.38
2022-10-08T15:36:56.692Z,1.10
2022-10-08T15:39:23.166Z,1.75
2022-10-08T15:41:51.682Z,1.35
2022-10-08T15:44:25.810Z,2.40
2022-10-08T15:46:59.272Z,1.52
2022-10-08T15:49:41.126Z,1.40
2022-10-08T15:52:12.732Z,1.98
2022-10-08T15:54:40.439Z,1.38
2022-10-08T15:57:13.020Z,1.80
2022-10-08T15:59:39.745Z,1.77
2022-10-08T16:02:16.678Z,1.98
2022-10-08T16:04:45.773Z,1.60
2022-10-08T16:07:12.260Z,1.40
2022-10-08T16:09:38.703Z,1.60
2022-10-08T16:12:05.222Z,2.10
2022-10-08T16:14:34.170Z,2.47
2022-10-08T16:17:03.053Z,2.50
2022-10-08T16:19:29.753Z,4.13
2022-10-08T16:22:01.086Z,4.32
2022-10-08T16:24:27.625Z,2.90
2022-10-08T16:26:54.122Z,3.25
2022-10-08T16:29:20.616Z,3.08
2022-10-08T16:31:47.689Z,2.40
2022-10-08T16:34:20.147Z,2.63
2022-10-08T16:36:48.135Z,2.63
2022-10-08T16:39:17.949Z,2.38
2022-10-08T16:41:49.856Z,2.25
2022-10-08T16:44:18.598Z,2.33
2022-10-08T16:46:51.027Z,2.30
2022-10-08T16:49:24.070Z,2.15
2022-10-08T16:51:58.467Z,2.30
2022-10-08T16:54:25.564Z,2.35
2022-10-08T16:56:52.292Z,3.22
2022-10-08T16:59:21.553Z,2.65
2022-10-08T17:01:50.683Z,3.40
2022-10-08T17:04:18.347Z,3.42
2022-10-08T17:06:45.275Z,2.88
2022-10-08T17:09:13.955Z,3.78
2022-10-08T17:11:41.871Z,4.53
2022-10-08T17:14:10.259Z,3.97
2022-10-08T17:16:37.104Z,4.57
2022-10-08T17:19:06.629Z,4.40
2022-10-08T17:21:34.922Z,5.50
2022-10-08T17:24:02.728Z,5.10
2022-10-08T17:26:30.413Z,6.10
2022-10-08T17:28:57.947Z,5.30
2022-10-08T17:31:26.556Z,6.75
2022-10-08T17:33:53.003Z,6.85
2022-10-08T17:36:26.539Z,6.32
2022-10-08T17:38:55.122Z,8.05
2022-10-08T17:41:25.794Z,6.78
2022-10-08T17:43:53.566Z,10.13
2022-10-08T17:46:23.414Z,17.40
2022-10-08T17:48:50.417Z,32.13
2022-10-08T17:51:20.292Z,43.53
2022-10-08T17:54:18.369Z,39.35
2022-10-08T17:56:45.577Z,23.25
2022-10-08T17:59:19.176Z,16.85
2022-10-08T18:01:46.238Z,7.47
2022-10-08T18:04:15.575Z,7.35
2022-10-08T18:06:43.844Z,5.75
2022-10-08T18:09:14.885Z,5.45
2022-10-08T18:11:43.590Z,5.32
2022-10-08T18:14:10.014Z,5.15
2022-10-08T18:16:36.637Z,5.43
2022-10-08T18:19:08.430Z,4.88
2022-10-08T18:21:35.319Z,5.45
2022-10-08T18:24:04.435Z,3.95
2022-10-08T18:26:36.718Z,4.47
2022-10-08T18:29:09.150Z,5.20
2022-10-08T18:31:40.096Z,4.07
2022-10-08T18:34:09.713Z,4.75
2022-10-08T18:36:38.208Z,6.55
2022-10-08T18:39:13.417Z,15.07
2022-10-08T18:41:42.493Z,14.00
2022-10-08T18:44:13.638Z,14.57
2022-10-08T18:46:40.371Z,13.25
2022-10-08T18:49:07.088Z,9.95
2022-10-08T18:51:34.206Z,7.80
2022-10-08T18:54:02.176Z,5.30
2022-10-08T18:56:30.958Z,5.38
2022-10-08T18:58:59.423Z,5.45
2022-10-08T19:01:29.472Z,8.45
2022-10-08T19:03:57.835Z,6.85
2022-10-08T19:06:27.476Z,5.32
2022-10-08T19:08:55.929Z,6.30
2022-10-08T19:11:25.966Z,5.53
2022-10-08T19:13:53.820Z,5.20
2022-10-08T19:16:23.563Z,11.45
2022-10-08T19:18:54.195Z,5.20
2022-10-08T19:21:21.786Z,7.13
2022-10-08T19:23:48.663Z,5.57
2022-10-08T19:26:15.451Z,5.25
2022-10-08T19:28:49.037Z,5.18
2022-10-08T19:31:24.643Z,9.02
2022-10-08T19:33:58.927Z,5.43
2022-10-08T19:36:30.343Z,9.27
2022-10-08T19:38:56.851Z,11.55
2022-10-08T19:41:26.844Z,8.93
2022-10-08T19:43:54.858Z,11.40
2022-10-08T19:46:22.620Z,10.30
2022-10-08T19:48:57.273Z,7.78
2022-10-08T19:51:25.540Z,7.47
2022-10-08T19:53:52.246Z,5.95
2022-10-08T19:56:20.942Z,9.48
2022-10-08T19:58:49.624Z,9.32
2022-10-08T20:01:21.577Z,7.68
2022-10-08T20:03:48.417Z,7.40
2022-10-08T20:06:23.222Z,6.50
2022-10-08T20:08:55.500Z,6.88
2022-10-08T20:11:22.577Z,7.40
2022-10-08T20:13:50.760Z,6.10
2022-10-08T20:16:20.484Z,8.57
2022-10-08T20:18:59.533Z,8.13
2022-10-08T20:21:30.490Z,6.88
2022-10-08T20:23:57.511Z,7.63
2022-10-08T20:26:27.108Z,6.03
2022-10-08T20:28:57.651Z,5.80
2022-10-08T20:31:29.952Z,6.88
2022-10-08T20:36:27.753Z,5.40
2022-10-08T20:38:54.696Z,5.20
2022-10-08T20:41:30.202Z,5.15
2022-10-08T20:44:00.316Z,5.03
2022-10-08T20:46:27.447Z,5.43
2022-10-08T20:48:54.315Z,5.25
2022-10-08T20:51:23.698Z,5.53
2022-10-08T20:53:54.760Z,4.57
2022-10-08T20:56:23.876Z,3.92
2022-10-08T20:58:54.412Z,4.25
2022-10-08T21:01:24.106Z,4.97
2022-10-08T21:03:54.442Z,4.57
2022-10-08T21:06:26.262Z,3.55
2022-10-08T21:08:56.703Z,4.25
2022-10-08T21:11:28.720Z,3.58
2022-10-08T21:13:59.858Z,3.13
2022-10-08T21:16:28.559Z,3.55
2022-10-08T21:19:00.082Z,3.90
2022-10-08T21:21:27.977Z,2.95
2022-10-08T21:23:57.468Z,3.65
2022-10-08T21:26:29.780Z,5.55
2022-10-08T21:29:01.306Z,4.93
2022-10-08T21:31:29.413Z,4.82
2022-10-08T21:33:56.992Z,5.13
2022-10-08T21:36:29.027Z,4.43
2022-10-08T21:39:01.962Z,3.50
2022-10-08T21:41:30.600Z,5.03
2022-10-08T21:43:59.535Z,3.83
2022-10-08T21:46:28.658Z,5.15
2022-10-08T21:48:57.293Z,3.90
2022-10-08T21:51:24.686Z,3.72
2022-10-08T21:53:55.785Z,4.13
2022-10-08T21:56:24.546Z,3.33
2022-10-08T21:58:56.011Z,3.67
2022-10-08T22:01:26.949Z,4.15
2022-10-08T22:04:13.949Z,3.70
2022-10-08T22:06:43.599Z,4.45
2022-10-08T22:09:15.126Z,4.28
2022-10-08T22:11:41.985Z,4.55
2022-10-08T22:14:09.248Z,4.13
2022-10-08T22:16:36.189Z,5.68
2022-10-08T22:19:05.724Z,5.95
2022-10-08T22:21:32.528Z,7.20
2022-10-08T22:23:59.047Z,6.25
2022-10-08T22:26:37.538Z,5.60
2022-10-08T22:29:05.506Z,4.57
2022-10-08T22:31:33.197Z,4.72
2022-10-08T22:34:02.166Z,8.40
2022-10-08T22:36:30.653Z,6.93
2022-10-08T22:39:00.043Z,7.32
2022-10-08T22:41:31.975Z,5.75
2022-10-08T22:43:59.173Z,6.50
2022-10-08T22:46:39.152Z,5.53
2022-10-08T22:49:09.269Z,6.20
2022-10-08T22:51:36.049Z,7.10
2022-10-08T22:54:02.770Z,7.45
2022-10-08T22:56:30.529Z,6.22
2022-10-08T22:58:59.234Z,5.57
2022-10-08T23:01:27.078Z,5.47
2022-10-08T23:04:00.928Z,4.75
2022-10-08T23:06:32.774Z,4.40
2022-10-08T23:09:01.356Z,5.25
2022-10-08T23:11:31.693Z,4.65
2022-10-08T23:13:59.536Z,4.93
2022-10-08T23:16:27.685Z,4.32
2022-10-08T23:18:56.549Z,4.43
2022-10-08T23:21:23.964Z,4.50
2022-10-08T23:23:53.769Z,4.57
2022-10-08T23:26:21.173Z,4.88
2022-10-08T23:28:53.329Z,4.85
2022-10-08T23:31:22.587Z,5.05
2022-10-08T23:33:50.704Z,5.03
2022-10-08T23:36:23.865Z,4.63
2022-10-08T23:38:51.049Z,6.07
2022-10-08T23:41:18.640Z,6.65
2022-10-08T23:43:46.784Z,7.25
2022-10-08T23:46:15.732Z,7.68
2022-10-08T23:48:42.373Z,6.22
2022-10-08T23:51:10.640Z,5.85
2022-10-08T23:53:38.266Z,6.80
2022-10-08T23:56:09.754Z,6.18
2022-10-08T23:58:36.317Z,5.30
